Time;durP1;ratioP1;P1;durP2;ratioP2;P2;SDS_P1;SDS_P2;PMS_P1;PMS_P2;Temp;Humidity;BMP_temperature;BMP_pressure;BME280_temperature;BME280_humidity;BME280_pressure;Samples;Min_cycle;Max_cycle;Signal;HPM_P1;HPM_P2
2021/07/21 00:03:35;;;;;;;13.82;8.20;;;;;;;17.80;76.33;102035.38;10247136;28;20046;-70
2021/07/21 00:08:32;;;;;;;14.45;9.10;;;;;;;17.80;76.36;102049.22;10249650;28;20110;-67
2021/07/21 00:13:31;;;;;;;15.52;9.88;;;;;;;17.70;77.05;102035.75;10231075;28;20049;-69
2021/07/21 00:18:33;;;;;;;17.23;9.23;;;;;;;17.72;77.20;102039.00;10235364;28;20053;-69
2021/07/21 00:23:31;;;;;;;18.33;10.48;;;;;;;17.74;77.00;102028.41;10236795;28;20136;-70
2021/07/21 00:28:27;;;;;;;16.33;9.85;;;;;;;17.68;77.45;102035.28;10229780;28;20073;-69
2021/07/21 00:33:24;;;;;;;14.32;9.10;;;;;;;17.67;77.90;102028.94;10246782;28;20461;-68
2021/07/21 00:38:20;;;;;;;13.02;9.40;;;;;;;17.64;78.16;102026.84;10232649;28;20427;-68
2021/07/21 00:43:17;;;;;;;16.17;9.15;;;;;;;17.58;78.86;102027.38;10233308;28;20060;-69
2021/07/21 00:48:13;;;;;;;13.10;8.82;;;;;;;17.52;79.46;102032.28;10239686;28;20627;-69
2021/07/21 00:53:10;;;;;;;13.35;8.27;;;;;;;17.51;79.65;102029.84;10239832;28;20545;-68
2021/07/21 00:58:08;;;;;;;16.05;8.95;;;;;;;17.55;79.00;102023.31;10231937;28;20081;-70
2021/07/21 01:03:05;;;;;;;15.80;8.88;;;;;;;17.46;79.55;102026.13;10190321;28;20050;-69
2021/07/21 01:08:03;;;;;;;15.60;10.32;;;;;;;17.38;80.21;102028.94;10216968;28;20132;-69
2021/07/21 01:13:14;;;;;;;17.50;10.23;;;;;;;17.30;80.76;102021.50;10230533;28;20060;-70
2021/07/21 01:18:24;;;;;;;14.05;9.57;;;;;;;17.35;80.24;102024.06;10240976;28;20622;-70
2021/07/21 01:23:52;;;;;;;12.90;8.40;;;;;;;17.34;79.59;102028.78;10207295;28;20045;-71
2021/07/21 01:28:51;;;;;;;12.43;8.65;;;;;;;17.42;78.88;102019.63;10212130;28;20073;-70
2021/07/21 01:33:48;;;;;;;13.52;8.18;;;;;;;17.48;78.71;102027.78;10241882;28;20073;-68
2021/07/21 01:38:50;;;;;;;15.25;8.73;;;;;;;17.50;78.84;102026.28;10235494;28;20053;-70
2021/07/21 01:43:50;;;;;;;15.37;9.57;;;;;;;17.49;79.03;102026.59;10207611;28;20049;-70
2021/07/21 01:48:50;;;;;;;15.82;8.18;;;;;;;17.50;79.49;102026.28;10231289;28;20091;-71
2021/07/21 01:53:47;;;;;;;14.95;8.93;;;;;;;17.44;80.01;102028.41;10238497;28;20053;-68
2021/07/21 01:58:44;;;;;;;13.43;9.77;;;;;;;17.44;80.51;102033.94;10234912;28;20045;-69
2021/07/21 02:03:41;;;;;;;16.65;9.88;;;;;;;17.47;80.28;102038.00;10218489;28;20096;-71
2021/07/21 02:08:38;;;;;;;16.00;10.68;;;;;;;17.43;80.88;102035.09;10219741;28;20049;-71
2021/07/21 02:13:34;;;;;;;16.23;10.77;;;;;;;17.51;80.51;102032.63;10243521;28;20049;-70
2021/07/21 02:18:32;;;;;;;17.50;10.85;;;;;;;17.48;80.93;102031.34;10233335;28;20422;-71
2021/07/21 02:23:30;;;;;;;15.73;10.65;;;;;;;17.50;80.80;102030.97;10240847;28;20049;-69
2021/07/21 02:28:29;;;;;;;17.52;11.07;;;;;;;17.49;80.71;102019.13;10232293;28;20389;-70
2021/07/21 02:33:35;;;;;;;19.27;11.27;;;;;;;17.47;80.94;102021.41;10223524;28;20088;-68
2021/07/21 02:38:32;;;;;;;21.13;10.82;;;;;;;17.48;80.66;102011.97;10223763;28;20056;-69
2021/07/21 02:43:28;;;;;;;19.58;11.40;;;;;;;17.46;80.85;102019.78;10233076;28;20148;-71
2021/07/21 02:48:25;;;;;;;16.38;10.82;;;;;;;17.40;81.24;102016.38;10245434;28;20515;-70
2021/07/21 02:53:32;;;;;;;16.77;11.57;;;;;;;17.34;81.10;102017.75;10240646;28;20080;-72
2021/07/21 02:58:48;;;;;;;19.08;11.02;;;;;;;17.35;81.25;102019.34;10235154;28;20128;-69
2021/07/21 03:03:46;;;;;;;14.43;9.48;;;;;;;17.32;81.60;102022.78;10213403;28;20037;-68
2021/07/21 03:08:47;;;;;;;15.30;10.15;;;;;;;17.32;81.40;102017.25;10258878;28;20095;-70
2021/07/21 03:13:53;;;;;;;16.63;10.70;;;;;;;17.35;81.14;102024.88;10222378;28;20041;-69
2021/07/21 03:18:52;;;;;;;20.08;11.02;;;;;;;17.30;81.44;102016.78;10238856;28;20149;-69
2021/07/21 03:23:50;;;;;;;18.63;9.90;;;;;;;17.32;81.29;102020.03;10237600;28;20057;-69
2021/07/21 03:28:53;;;;;;;16.45;10.25;;;;;;;17.29;81.39;102029.00;10235876;28;20489;-69
2021/07/21 03:34:14;;;;;;;17.83;10.73;;;;;;;17.26;81.45;102026.88;10233541;28;20123;-68
2021/07/21 03:39:11;;;;;;;17.00;9.98;;;;;;;17.25;81.48;102030.78;10235050;28;20103;-67
2021/07/21 03:44:18;;;;;;;19.52;11.35;;;;;;;17.23;81.34;102033.06;10240996;28;20056;-69
2021/07/21 03:49:18;;;;;;;14.68;9.48;;;;;;;17.31;80.93;102032.19;10233611;28;20530;-70
2021/07/21 03:54:16;;;;;;;20.65;10.95;;;;;;;17.26;80.66;102026.88;10233479;28;20037;-67
2021/07/21 03:59:16;;;;;;;15.82;9.77;;;;;;;17.28;80.70;102030.13;10227343;28;20041;-70
2021/07/21 04:04:15;;;;;;;13.95;8.98;;;;;;;17.34;79.94;102028.78;10222056;28;20042;-68
2021/07/21 04:09:17;;;;;;;23.23;10.52;;;;;;;17.23;80.34;102033.88;10227022;28;20053;-68
2021/07/21 04:14:16;;;;;;;14.98;9.75;;;;;;;17.23;80.47;102033.06;10231542;28;21074;-68
2021/07/21 04:19:14;;;;;;;15.40;8.90;;;;;;;17.21;80.52;102030.63;10232233;28;20054;-67
2021/07/21 04:24:12;;;;;;;15.15;10.45;;;;;;;17.18;81.05;102036.03;10235299;28;20069;-69
2021/07/21 04:29:14;;;;;;;15.55;9.38;;;;;;;17.32;80.53;102039.38;10236588;28;20095;-68
2021/07/21 04:34:12;;;;;;;17.38;10.05;;;;;;;17.19;81.20;102048.69;10233181;28;20120;-67
2021/07/21 04:39:13;;;;;;;18.95;10.20;;;;;;;17.28;80.81;102046.69;10235343;28;20042;-69
2021/07/21 04:44:10;;;;;;;16.58;10.90;;;;;;;17.31;80.74;102057.09;10237847;28;20108;-69
2021/07/21 04:49:09;;;;;;;20.67;10.95;;;;;;;17.23;80.71;102055.97;10237018;28;20578;-69
2021/07/21 04:54:06;;;;;;;20.30;10.10;;;;;;;17.31;80.63;102059.84;10232638;28;20049;-68
2021/07/21 04:59:04;;;;;;;20.45;9.98;;;;;;;17.29;80.83;102064.94;10228495;28;20058;-68
2021/07/21 05:04:00;;;;;;;18.23;11.27;;;;;;;17.35;80.32;102074.63;10233908;28;20045;-68
2021/07/21 05:08:57;;;;;;;17.05;10.07;;;;;;;17.27;80.14;102083.78;10232606;28;20392;-67
2021/07/21 05:13:54;;;;;;;18.10;10.80;;;;;;;17.28;80.03;102085.41;10215647;28;20094;-67
2021/07/21 05:18:50;;;;;;;15.77;10.30;;;;;;;17.22;80.07;102092.25;10235568;28;20466;-68
2021/07/21 05:23:46;;;;;;;21.65;9.88;;;;;;;17.21;80.06;102090.63;10232568;28;20095;-68
2021/07/21 05:28:42;;;;;;;17.30;10.60;;;;;;;17.10;80.47;102094.88;10244455;28;20076;-69
2021/07/21 05:33:39;;;;;;;17.58;9.40;;;;;;;17.16;80.91;102088.03;10242947;28;20049;-68
2021/07/21 05:38:35;;;;;;;16.98;10.95;;;;;;;17.12;81.47;102085.13;10236022;28;20041;-66
2021/07/21 05:43:32;;;;;;;17.83;10.10;;;;;;;17.13;81.20;102091.47;10242501;28;20092;-66
2021/07/21 05:48:28;;;;;;;21.60;10.90;;;;;;;17.16;81.12;102104.63;10237731;28;20495;-68
2021/07/21 05:53:25;;;;;;;15.93;11.25;;;;;;;17.29;81.27;102102.78;10239923;28;20041;-69
2021/07/21 05:58:21;;;;;;;16.42;9.88;;;;;;;17.32;80.73;102100.19;10233816;28;20080;-68
2021/07/21 06:03:20;;;;;;;13.98;10.15;;;;;;;17.38;80.60;102112.69;10240883;28;20091;-68
2021/07/21 06:08:17;;;;;;;19.45;10.55;;;;;;;17.36;80.12;102114.97;10240973;28;20049;-69
2021/07/21 06:13:13;;;;;;;19.45;11.05;;;;;;;17.37;80.72;102122.13;10242397;28;20041;-67
2021/07/21 06:18:10;;;;;;;16.20;10.68;;;;;;;17.33;80.79;102114.81;10239087;28;20057;-67
2021/07/21 06:23:06;;;;;;;18.40;11.75;;;;;;;17.32;81.22;102125.06;10243397;28;20621;-68
2021/07/21 06:28:03;;;;;;;21.90;10.75;;;;;;;17.28;82.79;102135.16;10244218;28;20087;-68
2021/07/21 06:33:00;;;;;;;21.00;12.82;;;;;;;17.13;83.57;102139.25;10228831;28;20099;-68
2021/07/21 06:37:56;;;;;;;21.90;12.82;;;;;;;17.18;83.71;102141.03;10247886;28;20042;-67
2021/07/21 06:42:53;;;;;;;22.00;13.77;;;;;;;17.10;84.37;102150.16;10238343;28;20061;-68
2021/07/21 06:47:49;;;;;;;22.10;13.40;;;;;;;17.08;84.58;102152.41;10235585;28;20045;-68
2021/07/21 06:52:46;;;;;;;24.38;13.73;;;;;;;17.09;84.79;102157.63;10231055;28;20503;-67
2021/07/21 06:57:42;;;;;;;20.17;12.20;;;;;;;17.16;85.07;102170.97;10242335;28;20046;-68
2021/07/21 07:02:39;;;;;;;24.55;12.00;;;;;;;17.22;84.47;102164.13;10241468;28;20521;-67
2021/07/21 07:07:36;;;;;;;21.83;11.68;;;;;;;17.39;84.48;102175.13;10228035;28;20051;-67
2021/07/21 07:12:32;;;;;;;19.77;12.20;;;;;;;17.49;83.60;102173.16;10247531;28;20473;-68
2021/07/21 07:17:29;;;;;;;18.50;11.65;;;;;;;17.59;82.27;102172.78;10247003;28;20041;-67
2021/07/21 07:22:26;;;;;;;21.90;11.45;;;;;;;17.74;82.26;102175.03;10248395;28;20500;-68
2021/07/21 07:27:22;;;;;;;17.45;11.38;;;;;;;17.78;81.18;102167.69;10238835;28;20080;-70
2021/07/21 07:32:19;;;;;;;18.55;10.93;;;;;;;17.97;80.86;102169.28;10247600;28;20036;-69
2021/07/21 07:37:15;;;;;;;16.33;10.45;;;;;;;18.16;80.54;102153.03;10245650;28;20115;-68
2021/07/21 07:42:12;;;;;;;16.77;10.63;;;;;;;18.16;78.97;102157.78;10241873;28;20037;-67
2021/07/21 07:47:09;;;;;;;19.40;10.93;;;;;;;18.26;78.40;102158.19;10245769;28;20087;-68
2021/07/21 07:52:06;;;;;;;15.73;8.80;;;;;;;18.18;76.96;102167.34;10240754;28;20052;-67
2021/07/21 07:57:02;;;;;;;14.70;8.85;;;;;;;18.25;76.71;102167.63;10249051;28;20107;-69
2021/07/21 08:01:59;;;;;;;12.18;7.68;;;;;;;18.16;75.21;102171.59;10237692;28;20136;-67
2021/07/21 08:06:56;;;;;;;15.27;8.25;;;;;;;18.11;75.19;102172.59;10246663;28;20646;-66
2021/07/21 08:11:54;;;;;;;18.88;10.40;;;;;;;18.05;76.55;102179.47;10249996;28;20507;-68
2021/07/21 08:16:53;;;;;;;15.32;7.10;;;;;;;18.12;72.39;102171.44;10242752;28;20046;-68
2021/07/21 08:21:51;;;;;;;14.73;8.20;;;;;;;18.13;71.45;102180.59;10237874;28;20649;-68
2021/07/21 08:26:47;;;;;;;12.82;7.80;;;;;;;18.18;71.69;102189.50;10248213;28;20107;-68
2021/07/21 08:32:04;;;;;;;12.05;7.15;;;;;;;18.07;73.32;102194.59;10240616;28;20045;-69
2021/07/21 08:37:01;;;;;;;11.48;7.85;;;;;;;18.20;73.77;102189.19;10247221;28;20107;-68
2021/07/21 08:41:58;;;;;;;10.88;7.05;;;;;;;18.32;72.97;102178.19;10239325;28;20731;-68
2021/07/21 08:46:55;;;;;;;16.45;7.88;;;;;;;18.26;70.08;102179.50;10230241;28;20045;-69
2021/07/21 08:51:53;;;;;;;12.35;7.70;;;;;;;18.28;71.01;102183.56;10242912;28;20042;-68
2021/07/21 08:56:50;;;;;;;10.70;6.03;;;;;;;18.19;71.21;102188.34;10238445;28;20049;-67
2021/07/21 09:01:47;;;;;;;11.13;6.47;;;;;;;18.23;71.01;102186.53;10245784;28;20049;-68
2021/07/21 09:06:43;;;;;;;9.20;5.45;;;;;;;18.29;70.89;102190.75;10243281;28;20111;-69
2021/07/21 09:11:40;;;;;;;11.77;7.65;;;;;;;18.37;68.91;102191.03;10240874;28;20046;-69
2021/07/21 09:16:37;;;;;;;7.97;5.25;;;;;;;18.48;69.56;102200.56;10239290;28;20041;-66
2021/07/21 09:21:34;;;;;;;9.68;5.65;;;;;;;18.54;69.34;102207.50;10239982;28;20037;-67
2021/07/21 09:26:34;;;;;;;10.80;6.13;;;;;;;18.61;70.12;102207.81;10229036;28;20045;-68
2021/07/21 09:31:33;;;;;;;13.15;6.15;;;;;;;18.80;71.11;102209.31;10224501;28;20037;-69
2021/07/21 09:36:30;;;;;;;8.73;6.18;;;;;;;18.79;70.60;102219.59;10234521;28;20525;-68
2021/07/21 09:41:26;;;;;;;8.80;5.05;;;;;;;18.54;70.60;102218.59;10215777;28;20045;-68
2021/07/21 09:46:23;;;;;;;11.02;6.32;;;;;;;18.45;71.01;102223.38;10244837;28;20042;-69
2021/07/21 09:51:32;;;;;;;11.27;6.07;;;;;;;18.33;72.51;102231.59;10219878;28;20049;-69
2021/07/21 09:56:30;;;;;;;12.45;6.97;;;;;;;18.26;71.50;102241.25;10248311;28;20862;-68
2021/07/21 10:01:30;;;;;;;11.52;5.93;;;;;;;18.23;71.78;102230.81;10237103;28;20477;-68
2021/07/21 10:06:37;;;;;;;8.70;5.47;;;;;;;18.26;71.99;102224.66;10240745;28;20393;-67
2021/07/21 10:11:40;;;;;;;9.20;5.55;;;;;;;18.27;69.89;102220.72;10243949;28;20442;-68
2021/07/21 10:16:45;;;;;;;8.53;5.50;;;;;;;18.30;69.54;102220.03;10239623;28;20415;-68
2021/07/21 10:21:50;;;;;;;10.07;5.40;;;;;;;18.42;69.09;102211.00;10239883;28;20045;-69
2021/07/21 10:26:47;;;;;;;8.98;5.30;;;;;;;18.58;68.82;102208.47;10244609;28;20392;-67
2021/07/21 10:31:44;;;;;;;8.80;4.32;;;;;;;18.80;68.03;102209.31;10216971;28;20679;-70
2021/07/21 10:36:41;;;;;;;8.20;4.60;;;;;;;19.11;67.06;102206.94;10246578;28;20045;-68
2021/07/21 10:41:37;;;;;;;10.90;6.70;;;;;;;19.27;66.12;102200.78;10245579;28;20069;-69
2021/07/21 10:46:46;;;;;;;9.07;6.13;;;;;;;19.18;66.09;102200.84;10233863;28;20053;-70
2021/07/21 11:02:20;;;;;;;11.57;5.43;;;;;;;19.36;66.48;102201.50;10249972;28;20045;-70
2021/07/21 11:07:54;;;;;;;9.40;5.47;;;;;;;19.53;66.52;102209.63;10246082;28;20561;-69
2021/07/21 11:12:50;;;;;;;10.45;5.78;;;;;;;19.55;65.90;102201.75;10245043;28;20415;-68
2021/07/21 11:18:25;;;;;;;9.20;5.72;;;;;;;19.66;66.03;102195.78;10239201;28;20050;-67
2021/07/21 11:23:39;;;;;;;10.68;5.03;;;;;;;19.66;65.82;102198.56;10255599;28;20041;-69
2021/07/21 11:28:36;;;;;;;10.82;5.10;;;;;;;19.82;64.84;102205.09;10230114;28;20140;-69
2021/07/21 11:33:50;;;;;;;9.30;4.70;;;;;;;19.83;64.63;102184.50;10254759;28;20042;-69
2021/07/21 11:38:52;;;;;;;8.73;5.20;;;;;;;19.71;64.11;102192.81;10245334;28;20041;-70
2021/07/21 11:44:00;;;;;;;8.95;5.38;;;;;;;19.81;64.48;102184.03;10244977;28;20076;-68
2021/07/21 11:48:57;;;;;;;9.75;6.05;;;;;;;19.94;64.61;102188.44;10244165;28;20076;-68
2021/07/21 11:53:53;;;;;;;9.75;6.03;;;;;;;19.96;63.99;102188.91;10244909;28;20036;-69
2021/07/21 11:59:01;;;;;;;9.93;4.88;;;;;;;20.16;64.05;102189.94;10239231;28;20114;-69
2021/07/21 12:03:58;;;;;;;8.70;5.40;;;;;;;20.27;63.19;102193.06;10250073;28;20046;-70
2021/07/21 12:08:56;;;;;;;9.45;4.95;;;;;;;20.53;61.83;102195.44;10242477;28;20053;-68
2021/07/21 12:14:02;;;;;;;10.15;6.18;;;;;;;20.40;61.77;102196.66;10252893;28;20046;-68
2021/07/21 12:19:04;;;;;;;8.57;4.28;;;;;;;20.60;61.88;102197.66;10246783;28;20049;-67
2021/07/21 12:24:03;;;;;;;10.20;5.43;;;;;;;20.76;62.54;102187.44;10242883;28;20037;-67
2021/07/21 12:28:59;;;;;;;11.15;6.00;;;;;;;20.92;61.46;102189.47;10248629;28;20481;-70
2021/07/21 12:34:16;;;;;;;7.93;4.93;;;;;;;21.13;60.64;102178.94;10246434;28;20044;-69
2021/07/21 12:39:15;;;;;;;10.35;4.78;;;;;;;21.17;61.70;102167.94;10245322;28;20075;-70
2021/07/21 12:44:13;;;;;;;8.73;4.45;;;;;;;21.01;59.93;102162.34;10243755;28;20693;-68
2021/07/21 12:49:10;;;;;;;10.32;6.93;;;;;;;21.31;58.67;102164.72;10238981;28;20174;-69
2021/07/21 12:54:06;;;;;;;9.27;5.88;;;;;;;21.19;58.88;102160.84;10237018;28;20136;-70
2021/07/21 12:59:08;;;;;;;8.73;5.60;;;;;;;21.36;58.16;102161.69;10247337;28;20072;-69
2021/07/21 13:04:07;;;;;;;7.93;4.72;;;;;;;21.11;58.52;102175.72;10246828;28;20041;-69
2021/07/21 13:09:06;;;;;;;8.60;5.00;;;;;;;21.10;59.28;102174.09;10235136;28;20053;-68
2021/07/21 13:14:03;;;;;;;9.73;4.95;;;;;;;21.53;58.87;102175.28;10242290;28;20409;-70
2021/07/21 13:19:02;;;;;;;7.70;4.55;;;;;;;;;;10237204;28;20526;-69
2021/07/21 13:24:06;;;;;;;9.80;4.65;;;;;;;21.98;57.61;102164.88;10243963;28;20143;-70
2021/07/21 13:29:15;;;;;;;9.10;4.90;;;;;;;21.81;56.59;102158.47;10233152;28;20477;-69
2021/07/21 13:34:23;;;;;;;9.23;4.30;;;;;;;21.66;57.06;102164.09;10239405;28;20077;-69
2021/07/21 13:39:22;;;;;;;8.98;4.60;;;;;;;21.73;57.68;102155.91;10246550;28;20477;-70
2021/07/21 13:44:31;;;;;;;8.45;4.65;;;;;;;21.63;58.10;102169.19;10233481;28;20107;-70
2021/07/21 13:49:41;;;;;;;8.77;4.28;;;;;;;21.46;56.94;102163.16;10247110;28;20423;-69
2021/07/21 13:54:47;;;;;;;8.55;4.88;;;;;;;21.25;56.02;102164.16;10229786;28;20037;-69
2021/07/21 13:59:45;;;;;;;11.13;5.00;;;;;;;21.17;56.79;102174.31;10238734;28;20069;-69
2021/07/21 14:04:41;;;;;;;8.55;4.57;;;;;;;21.18;56.28;102169.53;10241503;28;20038;-69
2021/07/21 14:09:38;;;;;;;8.95;5.32;;;;;;;20.94;56.27;102167.69;10230644;28;20045;-69
2021/07/21 14:14:34;;;;;;;11.70;5.53;;;;;;;20.92;56.23;102161.69;10241682;28;20068;-70
2021/07/21 14:19:31;;;;;;;8.02;4.57;;;;;;;21.46;54.95;102161.19;10240504;28;20041;-69
2021/07/21 14:24:27;;;;;;;10.57;5.30;;;;;;;21.61;54.65;102160.38;10246603;28;20140;-69
2021/07/21 14:29:24;;;;;;;8.65;4.30;;;;;;;21.53;54.74;102164.16;10241770;28;20107;-70
2021/07/21 14:34:21;;;;;;;10.02;5.35;;;;;;;21.44;55.41;102171.84;10246410;28;20045;-69
2021/07/21 14:39:20;;;;;;;9.07;4.55;;;;;;;21.62;53.86;102161.19;10238587;28;20072;-69
2021/07/21 14:44:18;;;;;;;8.88;4.13;;;;;;;21.91;53.38;102171.06;10245803;28;20041;-69
2021/07/21 14:49:16;;;;;;;7.15;4.28;;;;;;;22.04;53.08;102169.78;10241667;28;20049;-70
2021/07/21 14:54:14;;;;;;;7.15;4.57;;;;;;;22.05;52.36;102168.63;10247839;28;20135;-68
2021/07/21 14:59:11;;;;;;;7.65;4.55;;;;;;;21.77;52.56;102162.34;10246857;28;20064;-70
2021/07/21 15:04:08;;;;;;;9.80;5.25;;;;;;;22.21;52.86;102151.91;10225318;28;20109;-68
2021/07/21 15:09:10;;;;;;;6.75;4.18;;;;;;;22.13;52.67;102160.44;10241257;28;20068;-69
2021/07/21 15:14:11;;;;;;;8.93;4.80;;;;;;;21.42;54.35;102163.06;10245082;28;20083;-70
2021/07/21 15:19:09;;;;;;;7.88;4.78;;;;;;;21.54;54.76;102171.34;10254700;28;20076;-70
2021/07/21 15:24:10;;;;;;;9.77;5.50;;;;;;;21.46;54.04;102166.75;10247378;28;20077;-68
2021/07/21 15:29:07;;;;;;;8.15;4.72;;;;;;;21.48;54.83;102161.63;10251313;28;20119;-70
2021/07/21 15:34:10;;;;;;;8.43;4.32;;;;;;;21.81;54.50;102163.25;10232851;28;20072;-70
2021/07/21 15:39:11;;;;;;;;;;;;;;;21.72;54.22;102166.25;10227910;28;20076;-69
2021/07/21 15:44:08;;;;;;;6.63;4.63;;;;;;;21.31;55.09;102161.94;10233300;28;19964;-69
2021/07/21 15:49:06;;;;;;;7.95;4.70;;;;;;;21.59;53.81;102165.50;10231685;28;20053;-70
2021/07/21 15:54:03;;;;;;;7.45;5.05;;;;;;;21.56;52.70;102157.88;10244255;28;20632;-70
2021/07/21 15:59:00;;;;;;;8.70;4.63;;;;;;;21.82;52.35;102170.44;10237610;28;20143;-69
2021/07/21 16:03:56;;;;;;;7.35;4.50;;;;;;;21.67;52.73;102163.69;10235993;28;20142;-70
2021/07/21 16:08:53;;;;;;;10.30;4.63;;;;;;;22.36;52.11;102161.41;10239636;28;20142;-71
2021/07/21 16:13:52;;;;;;;6.95;4.13;;;;;;;22.77;49.80;102169.44;10223614;28;20077;-70
2021/07/21 16:18:48;;;;;;;7.93;4.15;;;;;;;22.48;49.51;102152.09;10231056;28;20096;-70
2021/07/21 16:23:45;;;;;;;9.27;5.05;;;;;;;22.92;49.00;102162.16;10242608;28;20349;-71
2021/07/21 16:28:43;;;;;;;8.82;5.05;;;;;;;23.35;47.99;102171.38;10238654;28;20046;-70
2021/07/21 16:33:40;;;;;;;8.48;5.40;;;;;;;22.80;49.66;102152.78;10250585;28;20585;-69
2021/07/21 16:38:36;;;;;;;9.10;5.22;;;;;;;22.65;49.73;102154.47;10240626;28;20679;-70
2021/07/21 16:43:33;;;;;;;8.38;4.80;;;;;;;22.55;50.98;102151.44;10240540;28;20065;-69
2021/07/21 16:48:29;;;;;;;8.25;5.32;;;;;;;22.42;50.71;102154.38;10223547;28;20573;-72
2021/07/21 16:53:28;;;;;;;9.82;5.40;;;;;;;21.95;51.29;102158.03;10225887;28;20128;-69
2021/07/21 16:58:24;;;;;;;7.68;4.47;;;;;;;22.45;50.66;102153.63;10229703;28;20105;-69
2021/07/21 17:03:21;;;;;;;6.70;4.78;;;;;;;22.27;51.45;102152.44;10219564;28;20099;-69
2021/07/21 17:08:18;;;;;;;8.80;5.82;;;;;;;21.82;51.26;102156.53;10225808;28;20073;-67
2021/07/21 17:13:14;;;;;;;7.88;5.32;;;;;;;21.88;52.02;102151.47;10234093;28;20103;-70
2021/07/21 17:18:11;;;;;;;8.50;5.70;;;;;;;21.78;53.38;102152.84;10227345;28;20114;-70
2021/07/21 17:23:09;;;;;;;9.32;6.00;;;;;;;21.70;53.41;102160.22;10224741;28;20099;-70
2021/07/21 17:28:10;;;;;;;8.57;5.57;;;;;;;21.50;54.46;102170.44;10227114;28;20548;-70
2021/07/21 17:33:07;;;;;;;10.23;6.55;;;;;;;21.45;54.29;102158.78;10229469;28;20133;-70
2021/07/21 17:38:04;;;;;;;11.63;6.45;;;;;;;21.30;54.71;102150.00;10230099;28;20565;-69
2021/07/21 17:43:01;;;;;;;12.07;6.40;;;;;;;21.43;53.54;102156.34;10228932;28;20049;-69
2021/07/21 17:47:59;;;;;;;9.85;6.70;;;;;;;21.58;52.74;102150.00;10246386;28;20057;-68
2021/07/21 17:52:57;;;;;;;11.63;7.38;;;;;;;21.61;52.42;102148.47;10239902;28;20124;-69
2021/07/21 17:57:54;;;;;;;12.85;6.82;;;;;;;21.31;53.42;102150.81;10242580;28;20477;-69
2021/07/21 18:02:51;;;;;;;8.00;5.30;;;;;;;21.14;53.78;102151.94;10237262;28;20112;-69
2021/07/21 18:07:53;;;;;;;10.60;6.85;;;;;;;20.95;54.27;102160.97;10229164;28;20045;-68
2021/07/21 18:12:51;;;;;;;8.25;5.70;;;;;;;20.91;54.51;102157.25;10251128;28;20043;-68
2021/07/21 18:17:49;;;;;;;10.57;7.07;;;;;;;20.78;55.24;102151.75;10236669;28;20543;-69
2021/07/21 18:22:46;;;;;;;10.23;7.05;;;;;;;20.68;55.42;102149.50;10230098;28;21334;-69
2021/07/21 18:27:44;;;;;;;12.35;7.15;;;;;;;20.53;55.71;102155.75;10234696;28;20045;-69
2021/07/21 18:32:40;;;;;;;16.70;8.40;;;;;;;20.40;56.12;102163.31;10228787;28;20042;-68
2021/07/21 18:37:41;;;;;;;12.48;7.95;;;;;;;20.34;56.59;102162.72;10231790;28;20041;-69
2021/07/21 18:42:37;;;;;;;12.10;8.15;;;;;;;20.30;56.70;102159.03;10231376;28;20041;-69
2021/07/21 18:47:34;;;;;;;15.27;9.35;;;;;;;20.25;57.12;102156.50;10231311;28;20041;-68
2021/07/21 18:52:30;;;;;;;12.40;8.23;;;;;;;20.00;57.46;102155.69;10229052;28;20076;-69
2021/07/21 18:57:28;;;;;;;14.20;9.43;;;;;;;19.97;58.04;102162.75;10226753;28;20415;-68
2021/07/21 19:02:24;;;;;;;11.90;7.68;;;;;;;19.81;58.69;102163.81;10223715;28;20570;-69
2021/07/21 19:07:22;;;;;;;14.30;8.45;;;;;;;19.74;59.01;102164.38;10235409;28;20107;-68
2021/07/21 19:12:18;;;;;;;15.95;9.85;;;;;;;19.66;59.24;102168.03;10231450;28;20045;-67
2021/07/21 19:17:16;;;;;;;12.50;8.02;;;;;;;19.50;59.92;102165.94;10237116;28;20041;-68
2021/07/21 19:22:14;;;;;;;15.70;9.52;;;;;;;19.44;60.14;102167.28;10240464;28;20044;-69
2021/07/21 19:27:12;;;;;;;15.68;10.02;;;;;;;19.37;60.45;102172.59;10239121;28;20052;-69
2021/07/21 19:32:09;;;;;;;13.70;10.00;;;;;;;19.16;61.05;102182.94;10219042;28;20053;-69
2021/07/21 19:37:06;;;;;;;14.95;11.40;;;;;;;19.12;61.30;102177.25;10242870;28;20098;-69
2021/07/21 19:42:02;;;;;;;14.80;9.55;;;;;;;19.07;61.92;102178.28;10242959;28;20123;-68
2021/07/21 19:46:59;;;;;;;13.30;9.50;;;;;;;18.99;61.76;102184.72;10237337;28;20053;-69
2021/07/21 19:51:56;;;;;;;16.85;9.27;;;;;;;18.92;61.74;102184.47;10231120;28;20042;-69
2021/07/21 19:56:52;;;;;;;14.98;9.30;;;;;;;18.78;62.03;102184.72;10230159;28;20045;-69
2021/07/21 20:01:49;;;;;;;14.75;8.63;;;;;;;18.71;62.60;102185.25;10239649;28;20079;-70
2021/07/21 20:06:46;;;;;;;11.93;7.72;;;;;;;18.59;63.12;102187.94;10240264;28;20060;-69
2021/07/21 20:11:43;;;;;;;13.52;8.38;;;;;;;18.56;63.09;102185.84;10233838;28;20781;-69
2021/07/21 20:16:39;;;;;;;13.55;9.13;;;;;;;18.52;63.41;102190.44;10213477;28;20045;-67
2021/07/21 20:21:36;;;;;;;12.40;9.55;;;;;;;18.42;63.81;102193.59;10227255;28;20111;-72
2021/07/21 20:26:33;;;;;;;13.65;8.80;;;;;;;18.37;64.49;102197.38;10224161;28;20052;-72
2021/07/21 20:31:30;;;;;;;12.88;8.80;;;;;;;18.25;65.28;102194.50;10223385;28;20599;-72
2021/07/21 20:36:27;;;;;;;14.15;9.75;;;;;;;18.26;65.18;102201.66;10229524;28;20503;-72
2021/07/21 20:41:24;;;;;;;13.85;9.30;;;;;;;18.13;65.57;102198.00;10225849;28;20077;-72
2021/07/21 20:46:22;;;;;;;16.48;9.55;;;;;;;18.05;66.12;102202.41;10236169;28;20079;-72
2021/07/21 20:51:19;;;;;;;13.00;8.30;;;;;;;18.00;66.23;102199.03;10235634;28;20046;-72
2021/07/21 20:56:16;;;;;;;12.40;8.15;;;;;;;17.87;66.66;102196.16;10168102;28;20041;-70
2021/07/21 21:01:13;;;;;;;10.80;7.85;;;;;;;17.80;66.31;102200.53;10160260;28;20054;-72
2021/07/21 21:06:11;;;;;;;11.55;8.15;;;;;;;17.64;66.67;102201.09;10161230;28;20757;-73
2021/07/21 21:11:08;;;;;;;15.95;9.63;;;;;;;17.65;66.84;102201.91;10185653;28;20103;-71
2021/07/21 21:16:05;;;;;;;11.02;8.23;;;;;;;17.58;67.21;102198.84;10197769;28;20049;-72
2021/07/21 21:21:02;;;;;;;14.05;8.77;;;;;;;17.46;67.57;102203.09;10199421;28;20080;-73
2021/07/21 21:25:58;;;;;;;13.20;7.88;;;;;;;17.41;67.42;102200.50;10200572;28;20041;-71
2021/07/21 21:30:55;;;;;;;12.55;8.55;;;;;;;17.36;67.50;102191.56;10182060;28;20128;-71
2021/07/21 21:35:55;;;;;;;11.95;8.55;;;;;;;17.28;67.73;102190.44;10179772;28;20052;-68
2021/07/21 21:40:52;;;;;;;16.48;9.60;;;;;;;17.28;67.26;102195.16;10205437;28;20088;-73
2021/07/21 21:45:48;;;;;;;19.25;10.23;;;;;;;17.26;67.47;102189.94;10199788;28;20042;-72
2021/07/21 21:50:45;;;;;;;18.15;9.90;;;;;;;17.18;67.79;102193.56;10201348;28;20068;-70
2021/07/21 21:55:41;;;;;;;14.32;9.13;;;;;;;17.09;68.00;102189.97;10193441;28;20076;-70
2021/07/21 22:00:38;;;;;;;12.43;8.05;;;;;;;17.00;68.24;102193.56;10174616;28;20113;-71
2021/07/21 22:05:35;;;;;;;12.80;9.25;;;;;;;16.97;68.40;102196.97;10193456;28;20096;-71
2021/07/21 22:10:33;;;;;;;15.40;8.73;;;;;;;16.96;68.34;102195.34;10192405;28;20195;-69
2021/07/21 22:15:36;;;;;;;14.48;9.77;;;;;;;16.93;68.49;102189.66;10198340;28;20069;-70
2021/07/21 22:20:34;;;;;;;13.82;9.85;;;;;;;17.01;68.10;102192.44;10198222;28;20469;-69
2021/07/21 22:25:32;;;;;;;14.75;9.55;;;;;;;16.94;68.36;102197.63;10196299;28;20133;-69
2021/07/21 22:30:52;;;;;;;14.90;9.00;;;;;;;16.89;68.59;102195.00;10204181;28;20092;-73
2021/07/21 22:35:51;;;;;;;13.13;8.93;;;;;;;16.82;68.41;102205.72;10170234;28;20729;-69
2021/07/21 22:40:48;;;;;;;13.63;8.13;;;;;;;16.80;68.66;102208.00;10205696;28;20080;-70
2021/07/21 22:45:45;;;;;;;12.48;8.60;;;;;;;16.72;68.98;102214.31;10208235;28;20050;-70
2021/07/21 22:50:42;;;;;;;11.82;8.30;;;;;;;16.64;69.54;102204.91;10209802;28;20046;-70